Weather observations for the past three days for
Cheboygan, Cheboygan County Airport
Imperial (Metric)
Date Time (edt) Wind (mph) Vis. (mi.) Weather Sky Cond. Temperature (ºF) Relative Humidity Wind Chill (°F) Heat Index (°F) Pressure Precipitation (in)
Air Dwpt 6 hour altimeter (in) sea level (mb) 1 hr 3 hr 6 hr
Max. Min.
04 04:35 E 2 10.00 A Few Clouds FEW110 55.4 53.6 94% 29.96 0.0
04 04:15 Calm 10.00 Fair CLR 55.4 53.6 94% 29.97 0.0
04 03:55 N 1 10.00 Partly Cloudy SCT100 55.4 53.6 94% 29.97 0.0
04 03:35 Calm 10.00 Mostly Cloudy BKN100 57.2 53.6 88% 29.97 0.0
04 03:15 SW 3 10.00 A Few Clouds FEW100 55.4 53.6 94% 29.97 0.0
04 02:55 Calm 10.00 Fair CLR 53.6 51.8 94% 29.97 0.0
04 02:36 Calm 10.00 Fair CLR 55.4 51.8 88% 29.98 0.0
04 02:15 SW 3 10.00 Fair CLR 55.4 51.8 88% 29.99 0.0
04 01:55 W 2 10.00 Fair CLR 55.4 53.6 69.4 55.2 94% 30 0.0
04 01:35 SW 1 10.00 Fair CLR 55.4 53.6 94% 30 0.0
04 01:15 SW 1 10.00 Fair CLR 55.4 53.6 94% 30 0.0
04 00:55 SW 2 10.00 Fair CLR 57.2 53.6 88% 30 0.0
04 00:35 Calm 10.00 Fair CLR 57.2 53.6 88% 30 0.0
04 00:16 W 2 10.00 Fair CLR 57.2 53.6 88% 30 0.0
03 23:55 SW 2 10.00 Fair CLR 57.2 55.4 94% 30 0.0
03 23:35 SW 2 10.00 Fair CLR 59 55.4 88% 30 0.0
03 23:15 SW 2 10.00 Fair CLR 57.2 55.4 94% 29.99 0.0
03 22:55 W 2 10.00 Fair CLR 57.2 55.4 94% 29.99 0.0
03 22:35 W 2 10.00 Fair CLR 59 55.4 88% 29.99 0.0
03 22:15 W 2 10.00 Fair CLR 60.8 57.2 88% 29.98 0.0
03 21:55 W 2 10.00 Fair CLR 60.8 57.2 88% 29.98 0.0
03 21:36 W 1 10.00 Fair CLR 60.8 57.2 88% 29.98 0.0
03 21:16 SW 1 10.00 Fair CLR 60.8 55.4 83% 29.97 0.0
03 20:55 SW 1 10.00 Fair CLR 62.6 57.2 83% 29.96 0.0
03 20:35 S 3 10.00 Fair CLR 64.4 57.2 78% 29.96 0.0
03 20:15 NE 1 10.00 Fair CLR 64.4 57.2 78% 29.95 0.0
03 19:55 S 3 10.00 Fair CLR 69.8 57.2 77.4 69.3 64% 29.95 0.0
03 19:35 SE 2 10.00 Fair CLR 69.8 57.2 64% 29.95 0.0
03 19:16 NE 5 10.00 Fair CLR 71.6 55.4 57% 29.94 0.0
03 18:55 E 5 10.00 Fair CLR 73.4 55.4 53% 29.93 0.0
03 18:35 NE 8 10.00 Fair CLR 75.2 53.6 47% 78 29.92 0.0
03 18:15 NE 6 10.00 Fair CLR 75.2 53.6 47% 78 29.92 0.0
03 17:55 NE 5 10.00 Fair CLR 77 53.6 44% 78 29.91 0.0
03 17:35 NE 7 10.00 Fair CLR 75.2 55.4 50% 78 29.92 0.0
03 17:15 NE 8 10.00 Fair CLR 77 55.4 47% 79 29.93 0.0
03 16:56 E 3 10.00 Fair CLR 77 55.4 47% 79 29.94 0.0
03 16:35 E 6 10.00 A Few Clouds FEW110 77 55.4 47% 79 29.94 0.0
03 16:15 NE 7 10.00 Partly Cloudy SCT100 75.2 57.2 54% 78 29.95 0.0
03 15:55 E 3 10.00 A Few Clouds FEW100 75.2 55.4 50% 78 29.96 0.0
03 15:35 Vrbl 3 10.00 Partly Cloudy SCT100 75.2 55.4 50% 78 29.97 0.0
03 15:15 Vrbl 2 10.00 Mostly Cloudy BKN095 75.2 55.4 50% 78 29.98 0.0
03 14:56 Vrbl 2 10.00 Overcast OVC095 75.2 55.4 50% 78 30 0.0
03 14:35 W 3 9.00 Mostly Cloudy BKN095 75.2 53.6 47% 78 29.99 0.0
03 14:15 Calm 10.00 Fair CLR 75.2 53.6 47% 78 29.99 0.0
03 13:55 Vrbl 1 10.00 Fair CLR 73.4 53.6 75 60.3 50% 29.99 0.0
03 13:35 Vrbl 2 10.00 Fair CLR 73.4 55.4 53% 29.98 0.0
03 13:15 E 5 10.00 Fair CLR 73.4 55.4 53% 29.97 0.0
03 12:55 Vrbl 6 10.00 Fair CLR 73.4 57.2 57% 29.96 0.0
03 12:36 N 5 10.00 Fair CLR 73.4 57.2 57% 29.96 0.0
03 12:15 Vrbl 1 10.00 Fair CLR 71.6 57.2 61% 29.97 0.0
03 11:55 Vrbl 2 10.00 Fair CLR 71.6 57.2 61% 29.97 0.0
03 11:35 N 3 10.00 Fair CLR 69.8 57.2 64% 29.97 0.0
03 11:15 Vrbl 1 10.00 Fair CLR 69.8 57.2 64% 29.98 0.0
03 10:55 NE 5 10.00 Fair CLR 69.8 59 69% 29.97 0.0
03 10:35 N 7 10.00 Fair CLR 69.8 57.2 64% 29.97 0.0
03 10:16 NE 5 10.00 Fair CLR 69.8 57.2 64% 29.97 0.0
03 09:55 N 2 10.00 Fair CLR 69.8 57.2 64% 29.97 0.0
03 09:35 Vrbl 1 10.00 Fair CLR 68 57.2 69% 29.97 0.0
03 09:15 N 3 10.00 Fair CLR 66.2 59 78% 29.97 0.0
03 08:55 SW 2 10.00 A Few Clouds FEW043 66.2 60.8 83% 29.98 0.0
03 08:35 NE 2 10.00 Partly Cloudy SCT060 62.6 60.8 94% 29.96 0.0
03 08:15 SW 2 10.00 Overcast OVC060 62.6 59 88% 29.97 0.0
03 07:56 SW 3 10.00 Mostly Cloudy BKN060 60.8 59 94% 29.97 0.0
03 07:35 S 2 10.00 Partly Cloudy SCT050 SCT065 59 59 100% 29.96 0.0
03 07:15 SW 5 10.00 Mostly Cloudy SCT055 BKN065 59 57.2 94% 29.96 0.0
03 06:55 SW 3 6.00 Fog/Mist OVC065 59 57.2 94% 29.96 0.0
03 06:35 N 1 10.00 Mostly Cloudy FEW048 BKN050 BKN070 57.2 57.2 100% 29.96 0.0
03 06:15 W 1 10.00 Mostly Cloudy SCT048 BKN050 BKN070 57.2 55.4 94% 29.95 0.0
03 05:55 W 1 10.00 Overcast SCT048 BKN050 OVC070 59 57.2 94% 29.96 0.0
03 05:36 SW 1 10.00 Mostly Cloudy BKN050 BKN070 59 57.2 94% 29.96 0.0
03 05:15 Calm 10.00 Mostly Cloudy FEW050 BKN070 60.8 59 94% 29.95 0.0
03 04:55 W 2 10.00 Overcast BKN050 OVC065 60.8 59 94% 29.96 0.0
03 04:35 SW 1 10.00 Overcast BKN048 OVC065 59 57.2 94% 29.95 0.0
03 04:15 SW 1 10.00 Overcast FEW046 SCT055 OVC065 59 57.2 94% 29.95 0.0
03 03:55 SW 2 10.00 Mostly Cloudy SCT046 BKN055 59 57.2 94% 29.95 0.0
03 03:16 Vrbl 1 10.00 Mostly Cloudy BKN005 BKN045 59 57.2 94% 29.95 0.0
03 02:55 Calm 10.00 Partly Cloudy FEW007 SCT045 59 57.2 94% 29.94 0.0
03 02:35 W 1 10.00 Mostly Cloudy BKN045 59 57.2 94% 29.93 0.0
03 02:15 W 1 10.00 Overcast OVC047 59 57.2 94% 29.93 0.0
03 01:55 SW 3 10.00 Partly Cloudy SCT047 60.8 59 72.1 58.3 94% 29.93 0.0
03 01:35 SW 3 10.00 Fair CLR 59 57.2 94% 29.93 0.0
03 01:15 SW 5 10.00 Fair CLR 60.8 59 94% 29.93 0.0
03 00:56 SW 5 10.00 Fair CLR 60.8 57.2 88% 29.92 0.0
03 00:35 W 1 10.00 Fair CLR 59 57.2 94% 29.92 0.0
03 00:15 W 2 10.00 Fair CLR 60.8 59 94% 29.92 0.0
02 23:55 Calm 7.00 Fair CLR 60.8 59 94% 29.92 0.0
02 23:35 NE 1 1.75 Fog/Mist CLR 60.8 59 94% 29.92 0.0
02 23:15 SW 1 10.00 Fair CLR 60.8 59 94% 29.92 0.0
02 22:55 SW 2 10.00 Fair CLR 62.6 60.8 94% 29.92 0.0
02 22:36 SW 1 10.00 Fair CLR 64.4 62.6 94% 29.92 0.0
02 22:15 W 1 10.00 Fair CLR 64.4 60.8 88% 29.92 0.0
02 21:55 SW 2 10.00 Fair CLR 64.4 60.8 88% 29.91 0.0
02 21:35 NW 5 10.00 Fair CLR 66.2 62.6 88% 29.91 0.0
02 21:15 N 7 10.00 Fair CLR 68 60.8 78% 29.91 0.0
02 20:55 NE 3 10.00 Partly Cloudy SCT110 66.2 60.8 83% 29.9 0.0
02 20:35 SW 5 10.00 Overcast OVC110 69.8 60.8 73% 29.89 0.0
02 20:16 W 3 10.00 Overcast OVC110 71.6 60.8 69% 29.89 0.0
02 19:55 W 5 10.00 Overcast OVC110 71.6 60.8 82.2 72 69% 29.89 0.0
02 19:35 W 5 10.00 Mostly Cloudy BKN110 73.4 60.8 65% 29.89 0.0
02 19:15 W 6 10.00 A Few Clouds FEW110 75.2 59 57% 78 29.89 0.0
02 18:55 W 9 10.00 Fair CLR 75.2 60.8 61% 77 29.89 0.0
02 18:35 W 8 10.00 Fair CLR 77 60.8 57% 79 29.89 0.0
02 18:15 W 8 10.00 Fair CLR 77 60.8 57% 79 29.89 0.0
02 17:56 W 12 10.00 Fair CLR 78.8 60.8 54% 80 29.89 0.0
02 17:35 W 10 10.00 Fair CLR 78.8 60.8 54% 80 29.89 0.0
02 17:15 W 10 10.00 Fair CLR 78.8 59 51% 80 29.89 0.0
02 16:55 W 12 10.00 Fair CLR 80.6 59 48% 81 29.89 0.0
02 16:35 W 10 10.00 Fair CLR 80.6 59 48% 81 29.89 0.0
02 16:15 W 8 G 16 10.00 Fair CLR 80.6 57.2 45% 81 29.89 0.0
02 15:55 W 10 10.00 A Few Clouds FEW041 80.6 57.2 45% 81 29.9 0.0
02 15:36 W 10 10.00 Partly Cloudy SCT041 78.8 62.6 58% 80 29.91 0.0
02 15:15 SW 6 10.00 Mostly Cloudy BKN039 BKN044 78.8 59 51% 80 29.91 0.0
02 14:55 W 6 10.00 Mostly Cloudy BKN040 BKN048 77 62.6 61% 79 29.92 0.0
02 14:35 SW 10 10.00 Mostly Cloudy BKN040 78.8 62.6 58% 80 29.91 0.0
02 14:15 W 13 10.00 Mostly Cloudy BKN036 BKN044 77 60.8 57% 79 29.91 0.0
02 13:55 N 8 10.00 Partly Cloudy SCT036 78.8 62.6 79.7 66.6 58% 80 29.9 0.0
02 13:35 W 6 10.00 Fair CLR 78.8 60.8 54% 80 29.9 0.0
02 13:16 W 10 10.00 Fair CLR 77 62.6 61% 79 29.91 0.0
02 12:55 SW 6 10.00 Fair CLR 75.2 62.6 65% 77 29.9 0.0
02 12:35 W 7 10.00 Fair CLR 73.4 62.6 69% 29.9 0.0
02 12:15 W 7 10.00 Fair CLR 73.4 62.6 69% 29.91 0.0
02 11:55 W 8 10.00 Partly Cloudy SCT110 71.6 64.4 78% 29.91 0.0
02 11:35 W 6 10.00 Overcast OVC100 69.8 64.4 83% 29.91 0.0
02 11:15 W 9 10.00 Light Rain BKN100 69.8 64.4 83% 29.92 0.0
02 10:56 SW 8 10.00 Partly Cloudy SCT100 SCT120 69.8 64.4 83% 29.91 0.0
02 10:35 SW 5 10.00 Fair CLR 68 64.4 88% 29.88 0.0
02 10:15 NE 5 10.00 Light Rain FEW042 FEW065 SCT100 68 64.4 88% 29.85 0.0
02 09:55 E 5 10.00 Light Rain FEW043 BKN090 OVC110 66.2 62.6 88% 29.86 0.0 0.02
02 09:35 W 10 10.00 Light Rain FEW070 SCT090 OVC110 68 62.6 83% 29.94 0.0
02 09:15 W 10 10.00 Light Rain SCT070 BKN100 BKN110 69.8 64.4 83% 29.96 0.0
02 08:55 W 10 10.00 Partly Cloudy FEW095 SCT110 69.8 66.2 88% 29.95 0.0
02 08:36 W 10 8.00 A Few Clouds FEW085 FEW120 69.8 68 94% 29.94 0.0
02 08:15 W 5 2.50 Fog/Mist SCT001 SCT060 SCT120 69.8 68 94% 29.92 0.0
02 07:55 SW 5 0.50 Fog BKN001 68 66.2 71.4 63.1 94% 29.9 0.0
02 07:35 W 2 0.15 Fog VV000 66.2 64.4 94% 29.89 0.0
02 07:15 SW 2 0.15 Fog VV000 64.4 64.4 100% 29.89 0.0
02 06:55 W 2 0.15 Fog BKN001 64.4 64.4 100% 29.88 0.0
02 06:35 Vrbl 1 0.25 Fog BKN001 64.4 62.6 94% 29.88 0.0
02 06:16 SW 3 0.50 Fog VV005 66.2 64.4 94% 29.89 0.0
02 05:55 Calm 0.15 Fog VV000 64.4 64.4 100% 29.88 0.0
02 05:35 SW 1 0.15 Fog VV000 66.2 66.2 100% 29.88 0.0
02 05:15 S 1 0.15 Fog VV000 68 66.2 94% 29.88 0.0
02 04:55 Calm 0.15 Fog VV000 68 66.2 94% 29.87 0.0
02 04:35 N 1 0.15 Fog BKN001 BKN006 BKN014 68 68 100% 29.88 0.0
02 04:15 N 5 1.25 Fog/Mist SCT001 BKN008 OVC014 69.8 68 94% 29.87 0.0
02 03:56 W 5 4.00 Fog/Mist SCT008 BKN014 69.8 68 94% 29.87 0.0
02 03:35 SW 2 5.00 Fog/Mist OVC008 69.8 68 94% 29.87 0.0
02 03:15 Vrbl 1 7.00 Fog/Mist BKN010 OVC015 68 66.2 94% 29.87 0.0
02 02:55 S 1 0.50 Fog SCT006 OVC014 66.2 66.2 100% 29.87 0.0
02 02:35 SE 2 8.00 Mostly Cloudy BKN006 68 66.2 94% 29.86 0.0
02 02:15 Vrbl 1 10.00 Overcast SCT004 OVC013 69.8 66.2 88% 29.87 0.0
02 01:55 Vrbl 2 10.00 Overcast OVC013 69.8 68 70.3 63.3 94% 29.87 0.0
02 01:36 N 8 G 17 10.00 Partly Cloudy FEW003 SCT015 69.8 66.2 88% 29.87 0.0
02 01:15 S 3 10.00 Fair CLR 69.8 68 94% 29.85 0.0
02 00:55 S 5 10.00 Fair CLR 69.8 68 94% 29.85 0.0
02 00:35 S 3 10.00 Fair CLR 64.4 62.6 94% 29.86 0.0
02 00:15 Vrbl 1 10.00 Fair CLR 64.4 62.6 94% 29.86 0.0
01 23:55 Calm 10.00 Fair CLR 64.4 62.6 94% 29.87 0.0
01 23:35 Vrbl 1 10.00 Fair CLR 64.4 62.6 94% 29.87 0.0
01 23:16 SW 5 10.00 Fair CLR 64.4 62.6 94% 29.88 0.0
01 22:55 SW 2 10.00 Fair CLR 64.4 62.6 94% 29.88 0.0
01 22:35 Vrbl 1 10.00 Fair CLR 66.2 64.4 94% 29.87 0.0
01 22:15 Vrbl 1 10.00 Fair CLR 66.2 64.4 94% 29.88 0.0
01 21:55 E 1 9.00 A Few Clouds FEW037 66.2 64.4 94% 29.88 0.0
01 21:35 N 2 10.00 Mostly Cloudy BKN037 BKN043 BKN055 66.2 64.4 94% 29.88 0.0
01 21:15 N 3 10.00 Overcast BKN039 BKN044 OVC055 66.2 64.4 94% 29.88 0.0
01 20:56 NW 3 10.00 Mostly Cloudy SCT039 BKN050 BKN065 66.2 64.4 94% 29.88 0.0
01 20:35 NW 5 10.00 Partly Cloudy SCT060 SCT070 SCT110 66.2 64.4 94% 29.88 0.0
01 20:15 NW 3 10.00 Partly Cloudy FEW048 SCT060 66.2 64.4 94% 29.88 0.0
01 19:55 N 3 10.00 A Few Clouds FEW050 66.2 64.4 86.2 66.9 94% 29.88 0.0
01 19:35 N 5 10.00 Fair CLR 68 64.4 88% 29.87 0.0
01 19:15 NE 2 10.00 Fair CLR 68 64.4 88% 29.88 0.0
01 18:55 NE 5 10.00 Fair CLR 68 64.4 88% 29.88 0.0
01 18:36 NE 5 10.00 Fair CLR 69.8 66.2 88% 29.89 0.0
01 18:15 NE 6 9.00 Fair with Haze CLR 71.6 66.2 83% 29.89 0.0
01 17:55 NE 7 6.00 Fair with Haze CLR 71.6 66.2 83% 29.89 0.0
01 17:35 E 8 1.50 Fair with Haze CLR 71.6 66.2 83% 29.89 0.0
01 17:15 NE 7 10.00 Fair CLR 71.6 66.2 83% 29.89 0.0
01 16:55 E 9 10.00 Fair CLR 71.6 66.2 83% 29.9 0.0
01 16:35 NE 9 10.00 Fair CLR 73.4 66.2 78% 29.9 0.0
01 16:16 E 8 10.00 Fair CLR 73.4 68 83% 29.9 0.0
01 15:55 NE 9 10.00 Fair CLR 78.8 69.8 74% 81 29.9 0.0
01 15:35 NE 8 8.00 A Few Clouds FEW030 78.8 69.8 74% 81 29.91 0.0
01 15:15 NE 7 10.00 Partly Cloudy SCT030 80.6 69.8 70% 84 29.91 0.0
01 14:55 SW 8 5.00 A Few Clouds with Haze FEW028 84.2 71.6 66% 90 29.92 0.0
01 14:35 W 7 10.00 A Few Clouds FEW022 84.2 69.8 62% 88 29.92 0.0
01 14:15 SW 9 10.00 Partly Cloudy SCT020 82.4 71.6 70% 87 29.93 0.0
01 13:56 Vrbl 6 10.00 Partly Cloudy SCT016 80.6 71.6 74% 85 29.93 0.0
01 13:35 SW 6 10.00 Mostly Cloudy BKN014 78.8 69.8 74% 81 29.94 0.0
01 13:15 SW 3 10.00 Overcast SCT009 OVC014 75.2 69.8 83% 75 29.94 0.0
01 12:55 S 6 10.00 Overcast OVC007 75.2 69.8 83% 75 29.95 0.0
01 12:35 S 5 10.00 Overcast OVC003 73.4 69.8 89% 29.95 0.0
01 12:15 SW 8 6.00 Fog/Mist OVC003 71.6 68 88% 29.95 0.0
01 11:55 Vrbl 6 3.00 Fog/Mist OVC001 69.8 68 94% 29.95 0.0
01 11:36 S 6 1.50 Fog/Mist OVC001 69.8 68 94% 29.94 0.0
01 11:15 SE 8 1.75 Fog/Mist OVC001 69.8 68 94% 29.94 0.0
01 10:55 E 3 2.00 Fog/Mist OVC001 68 68 100% 29.95 0.0
01 10:35 Vrbl 1 0.50 Fog OVC001 68 66.2 94% 29.95 0.0
01 10:15 Calm 1.25 Fog/Mist OVC001 68 66.2 94% 29.95 0.0
01 09:55 SW 5 2.50 Fog/Mist OVC001 68 66.2 94% 29.94 0.0
01 09:35 S 3 0.75 Fog/Mist OVC001 66.2 66.2 100% 29.94 0.0
01 09:15 Vrbl 3 0.15 Fog VV000 66.2 64.4 94% 29.94 0.0
01 08:56 Vrbl 2 0.15 Fog VV000 66.2 64.4 94% 29.94 0.0
01 08:35 SE 3 0.15 Fog VV000 64.4 64.4 100% 29.93 0.0
01 08:15 E 5 0.15 Fog VV000 64.4 64.4 100% 29.93 0.0
01 07:55 E 5 0.15 Fog VV000 64.4 64.4 65.1 64.2 100% 29.93 0.0
01 07:35 NE 3 0.15 Fog VV000 64.4 64.4 100% 29.93 0.0
01 07:15 E 3 0.15 Fog VV000 64.4 64.4 100% 29.92 0.0
01 06:55 NE 2 0.15 Fog VV000 64.4 64.4 100% 29.92 0.0
01 06:36 Vrbl 1 0.15 Fog VV000 64.4 64.4 100% 29.92 0.0
01 06:15 W 1 0.15 Fog VV000 64.4 64.4 100% 29.92 0.0
01 05:35 Calm 0.15 Fog VV000 64.4 64.4 100% 29.91 0.0
01 05:15 N 2 0.25 Fog VV002 64.4 64.4 100% 29.91 0.0
01 04:55 NE 1 0.50 Fog VV002 64.4 64.4 100% 29.9 0.0
Date Time (edt) Wind (mph) Vis. (mi.) Weather Sky Cond. Air Dwpt Max. Min. Relative Humidity Wind Chill (°F) Heat Index (°F) altimeter (in) sea level (mb) 1 hr 3 hr 6 hr
6 hour
Temperature (ºF) Pressure Precipitation (in)